createdAt,value
2019-05-11T00:02:17.436Z,8.30
2019-05-11T00:04:51.553Z,8.30
2019-05-11T00:07:25.412Z,8.30
2019-05-11T00:09:59.112Z,8.30
2019-05-11T00:12:33.486Z,8.30
2019-05-11T00:15:08.997Z,8.30
2019-05-11T00:17:42.738Z,8.30
2019-05-11T00:20:16.604Z,8.30
2019-05-11T00:22:50.141Z,8.40
2019-05-11T00:25:23.787Z,8.40
2019-05-11T00:27:57.012Z,8.40
2019-05-11T00:30:30.798Z,8.40
2019-05-11T00:33:07.620Z,8.40
2019-05-11T00:35:41.670Z,8.30
2019-05-11T00:38:15.591Z,8.30
2019-05-11T00:40:49.333Z,8.30
2019-05-11T00:43:23.296Z,8.30
2019-05-11T00:45:57.554Z,8.30
2019-05-11T00:48:33.547Z,8.40
2019-05-11T00:51:10.837Z,8.40
2019-05-11T00:53:44.879Z,8.40
2019-05-11T00:56:20.104Z,8.50
2019-05-11T00:58:53.596Z,8.60
2019-05-11T01:01:29.368Z,8.70
2019-05-11T01:04:04.422Z,8.70
2019-05-11T01:06:38.712Z,8.70
2019-05-11T01:09:12.516Z,8.70
2019-05-11T01:11:46.102Z,8.70
2019-05-11T01:14:19.863Z,8.80
2019-05-11T01:16:57.963Z,8.80
2019-05-11T01:19:32.333Z,8.70
2019-05-11T01:22:06.426Z,8.70
2019-05-11T01:24:41.175Z,8.70
2019-05-11T01:27:15.683Z,8.80
2019-05-11T01:29:49.271Z,8.80
2019-05-11T01:32:24.079Z,8.80
2019-05-11T01:35:00.267Z,8.80
2019-05-11T01:37:35.062Z,8.80
2019-05-11T01:40:10.587Z,8.80
2019-05-11T01:42:45.368Z,8.70
2019-05-11T01:45:19.336Z,8.70
2019-05-11T01:47:54.177Z,8.70
2019-05-11T01:50:28.653Z,8.70
2019-05-11T01:53:02.401Z,8.60
2019-05-11T01:55:37.286Z,8.50
2019-05-11T01:58:12.458Z,8.40
2019-05-11T02:00:45.887Z,8.40
2019-05-11T02:03:19.672Z,8.50
2019-05-11T02:05:53.423Z,8.50
2019-05-11T02:08:27.656Z,8.50
2019-05-11T02:11:14.894Z,8.50
2019-05-11T02:13:39.254Z,8.50
2019-05-11T02:16:13.580Z,8.50
2019-05-11T02:18:47.743Z,8.50
2019-05-11T02:21:24.366Z,8.50
2019-05-11T02:23:57.847Z,8.40
2019-05-11T02:26:31.977Z,8.40
2019-05-11T02:29:06.954Z,8.40
2019-05-11T02:31:41.098Z,8.50
2019-05-11T02:34:17.732Z,8.50
2019-05-11T02:36:52.845Z,8.50
2019-05-11T02:39:26.913Z,8.50
2019-05-11T02:42:00.396Z,8.60
2019-05-11T02:44:34.832Z,8.60
2019-05-11T02:47:09.123Z,8.60
2019-05-11T02:49:42.381Z,8.60
2019-05-11T02:52:16.880Z,8.60
2019-05-11T02:54:54.366Z,8.60
2019-05-11T02:57:29.407Z,8.60
2019-05-11T03:00:06.518Z,8.50
2019-05-11T03:02:40.108Z,8.50
2019-05-11T03:05:14.507Z,8.60
2019-05-11T03:07:47.850Z,8.60
2019-05-11T03:10:21.333Z,8.60
2019-05-11T03:12:54.342Z,8.60
2019-05-11T03:15:29.532Z,8.60
2019-05-11T03:18:05.104Z,8.60
2019-05-11T03:20:40.101Z,8.60
2019-05-11T03:23:15.288Z,8.60
2019-05-11T03:25:49.163Z,8.60
2019-05-11T03:28:22.718Z,8.60
2019-05-11T03:30:56.280Z,8.70
2019-05-11T03:33:30.058Z,8.70
2019-05-11T03:36:05.124Z,8.70
2019-05-11T03:38:39.038Z,8.70
2019-05-11T03:41:13.758Z,8.70
2019-05-11T03:43:47.809Z,8.70
2019-05-11T03:46:23.296Z,8.70
2019-05-11T03:48:58.030Z,8.70
2019-05-11T03:51:33.772Z,8.70
2019-05-11T03:54:08.319Z,8.70
2019-05-11T03:56:45.888Z,8.70
2019-05-11T03:59:20.650Z,8.70
2019-05-11T04:01:55.651Z,8.80
2019-05-11T04:04:29.408Z,8.80
2019-05-11T04:07:04.143Z,8.80
2019-05-11T04:09:38.411Z,8.80
2019-05-11T04:12:32.918Z,8.80
2019-05-11T04:14:50.327Z,8.80
2019-05-11T04:17:25.643Z,8.80
2019-05-11T04:20:00.529Z,8.70
2019-05-11T04:22:34.989Z,8.80
2019-05-11T04:25:09.644Z,8.80
2019-05-11T04:27:44.983Z,8.80
2019-05-11T04:30:19.281Z,8.80
2019-05-11T04:32:56.593Z,8.90
2019-05-11T04:35:30.886Z,8.80
2019-05-11T04:38:05.152Z,8.90
2019-05-11T04:40:39.717Z,8.90
2019-05-11T04:43:14.123Z,8.90
2019-05-11T04:45:48.647Z,8.90
2019-05-11T04:48:23.615Z,8.90
2019-05-11T04:50:58.116Z,9.00
2019-05-11T04:53:32.503Z,9.00
2019-05-11T04:56:06.945Z,9.00
2019-05-11T04:58:40.827Z,8.90
2019-05-11T05:01:14.084Z,8.90
2019-05-11T05:03:54.120Z,9.10
2019-05-11T05:06:24.541Z,9.10
2019-05-11T05:09:03.556Z,9.10
2019-05-11T05:11:36.501Z,9.10
2019-05-11T05:14:11.435Z,9.20
2019-05-11T05:16:45.712Z,9.20
2019-05-11T05:19:20.009Z,9.20
2019-05-11T05:21:53.615Z,9.30
2019-05-11T05:24:28.448Z,9.30
2019-05-11T05:27:02.266Z,9.40
2019-05-11T05:29:39.230Z,9.40
2019-05-11T05:32:13.609Z,9.50
2019-05-11T05:34:48.017Z,9.50
2019-05-11T05:37:21.638Z,9.50
2019-05-11T05:39:56.625Z,9.50
2019-05-11T05:42:31.440Z,9.50
2019-05-11T05:45:06.683Z,9.60
2019-05-11T05:47:41.523Z,9.60
2019-05-11T05:50:16.100Z,9.70
2019-05-11T05:52:50.475Z,9.80
2019-05-11T05:55:26.023Z,9.80
2019-05-11T05:58:01.016Z,9.80
2019-05-11T06:00:35.356Z,9.90
2019-05-11T06:03:09.828Z,10.00
2019-05-11T06:05:44.722Z,10.00
2019-05-11T06:08:19.287Z,10.10
2019-05-11T06:10:53.842Z,10.20
2019-05-11T06:13:43.863Z,10.30
2019-05-11T06:16:05.091Z,10.50
2019-05-11T06:18:41.537Z,10.60
2019-05-11T06:21:16.885Z,10.70
2019-05-11T06:23:51.627Z,10.80
2019-05-11T06:26:25.732Z,10.80
2019-05-11T06:29:01.672Z,10.80
2019-05-11T06:31:38.435Z,10.90
2019-05-11T06:34:13.445Z,10.90
2019-05-11T06:36:48.092Z,10.90
2019-05-11T06:39:25.440Z,10.90
2019-05-11T06:42:02.350Z,10.90
2019-05-11T06:44:38.115Z,10.80
2019-05-11T06:47:11.972Z,10.90
2019-05-11T06:49:46.762Z,11.00
2019-05-11T06:52:20.867Z,11.00
2019-05-11T06:54:54.563Z,11.00
2019-05-11T06:57:31.693Z,11.00
2019-05-11T07:00:06.015Z,11.00
2019-05-11T07:02:42.876Z,11.10
2019-05-11T07:05:18.423Z,11.10
2019-05-11T07:07:53.430Z,11.20
2019-05-11T07:10:30.667Z,11.10
2019-05-11T07:13:04.799Z,11.20
2019-05-11T07:15:38.889Z,11.20
2019-05-11T07:18:12.643Z,11.20
2019-05-11T07:20:50.895Z,11.20
2019-05-11T07:23:24.830Z,11.20
2019-05-11T07:26:00.682Z,11.30
2019-05-11T07:28:33.227Z,11.30
2019-05-11T07:31:05.522Z,11.40
2019-05-11T07:33:38.339Z,11.50
2019-05-11T07:36:10.661Z,11.60
2019-05-11T07:38:45.542Z,11.60
2019-05-11T07:41:17.774Z,11.70
2019-05-11T07:43:49.983Z,11.70
2019-05-11T07:46:23.530Z,11.80
2019-05-11T07:48:58.239Z,12.10
2019-05-11T07:51:31.293Z,12.10
2019-05-11T07:54:04.723Z,12.20
2019-05-11T07:56:38.995Z,12.20
2019-05-11T07:59:12.519Z,12.30
2019-05-11T08:01:45.020Z,12.40
2019-05-11T08:04:18.352Z,12.50
2019-05-11T08:06:50.315Z,12.60
2019-05-11T08:09:23.076Z,12.40
2019-05-11T08:11:55.469Z,12.50
2019-05-11T08:14:28.798Z,12.50
2019-05-11T08:17:02.105Z,12.60
2019-05-11T08:19:34.461Z,12.60
2019-05-11T08:22:08.567Z,12.60
2019-05-11T08:24:41.376Z,12.80
2019-05-11T08:27:13.979Z,12.90
2019-05-11T08:29:48.573Z,13.10
2019-05-11T08:32:19.909Z,13.30
2019-05-11T08:34:52.016Z,13.50
2019-05-11T08:37:24.636Z,13.80
2019-05-11T08:39:58.492Z,14.00
2019-05-11T08:42:31.610Z,14.20
2019-05-11T08:45:15.812Z,14.20
2019-05-11T08:47:42.816Z,14.20
2019-05-11T08:50:15.588Z,14.20
2019-05-11T08:52:47.950Z,14.30
2019-05-11T08:55:20.564Z,14.40
2019-05-11T08:57:52.705Z,14.40
2019-05-11T09:00:28.330Z,14.30
2019-05-11T09:03:03.735Z,14.40
2019-05-11T09:05:38.472Z,14.40
2019-05-11T09:08:10.980Z,14.20
2019-05-11T09:10:43.821Z,14.10
2019-05-11T09:13:18.482Z,14.30
2019-05-11T09:15:50.882Z,14.20
2019-05-11T09:18:23.336Z,14.30
2019-05-11T09:21:01.139Z,14.70
2019-05-11T09:23:37.522Z,14.80
2019-05-11T09:26:08.967Z,15.00
2019-05-11T09:28:41.613Z,15.10
2019-05-11T09:31:14.794Z,15.60
2019-05-11T09:33:48.171Z,15.60
2019-05-11T09:36:23.588Z,15.90
2019-05-11T09:38:58.116Z,16.20
2019-05-11T09:41:33.039Z,16.60
2019-05-11T09:44:08.978Z,16.60
2019-05-11T09:46:41.495Z,16.50
2019-05-11T09:49:13.528Z,16.50
2019-05-11T09:51:48.296Z,16.40
2019-05-11T09:54:20.663Z,16.30
2019-05-11T09:56:53.953Z,16.20
2019-05-11T09:59:28.168Z,16.20
2019-05-11T10:02:02.009Z,16.10
2019-05-11T10:04:34.941Z,16.20
2019-05-11T10:07:09.061Z,16.10
2019-05-11T10:09:42.078Z,16.20
2019-05-11T10:12:18.131Z,16.30
2019-05-11T10:14:54.330Z,16.70
2019-05-11T10:17:28.786Z,17.10
2019-05-11T10:20:02.605Z,17.20
2019-05-11T10:22:34.455Z,16.60
2019-05-11T10:25:08.916Z,16.30
2019-05-11T10:27:42.704Z,15.90
2019-05-11T10:30:18.630Z,15.50
2019-05-11T10:32:53.248Z,15.20
2019-05-11T10:35:28.874Z,15.40
2019-05-11T10:38:04.051Z,15.60
2019-05-11T10:40:38.736Z,16.00
2019-05-11T10:43:13.246Z,16.10
2019-05-11T10:45:48.274Z,16.40
2019-05-11T10:48:20.288Z,16.70
2019-05-11T10:50:57.655Z,17.10
2019-05-11T10:53:32.036Z,17.50
2019-05-11T10:56:04.738Z,17.30
2019-05-11T10:58:37.894Z,17.00
2019-05-11T11:01:10.376Z,17.00
2019-05-11T11:04:07.860Z,16.70
2019-05-11T11:06:40.263Z,16.40
2019-05-11T11:09:12.745Z,16.90
2019-05-11T11:11:45.087Z,18.00
2019-05-11T11:14:19.658Z,18.50
2019-05-11T11:16:54.339Z,17.80
2019-05-11T11:19:29.002Z,17.50
2019-05-11T11:22:22.473Z,18.30
2019-05-11T11:24:37.505Z,19.40
2019-05-11T11:27:18.069Z,19.40
2019-05-11T11:29:50.355Z,19.90
2019-05-11T11:32:27.935Z,19.50
2019-05-11T11:35:00.939Z,18.90
2019-05-11T11:37:33.262Z,18.40
2019-05-11T11:40:08.341Z,18.10
2019-05-11T11:42:40.590Z,18.00
2019-05-11T11:45:13.962Z,18.00
2019-05-11T11:47:49.022Z,17.90
2019-05-11T11:50:20.562Z,18.20
2019-05-11T11:52:53.008Z,17.90
2019-05-11T11:55:26.263Z,17.40
2019-05-11T11:57:58.873Z,17.00
2019-05-11T12:00:30.546Z,17.60
2019-05-11T12:03:02.642Z,19.00
2019-05-11T12:05:35.487Z,20.40
2019-05-11T12:08:08.304Z,21.10
2019-05-11T12:10:40.590Z,21.40
2019-05-11T12:13:14.723Z,21.60
2019-05-11T12:15:48.198Z,21.40
2019-05-11T12:18:19.591Z,21.80
2019-05-11T12:20:51.515Z,21.60
2019-05-11T12:23:28.453Z,20.40
2019-05-11T12:26:05.624Z,18.90
2019-05-11T12:28:38.305Z,17.70
2019-05-11T12:31:10.813Z,17.00
2019-05-11T12:33:44.040Z,16.50
2019-05-11T12:36:18.466Z,17.00
2019-05-11T12:38:50.093Z,18.50
2019-05-11T12:41:21.575Z,20.00
2019-05-11T12:43:52.850Z,21.30
2019-05-11T12:46:24.710Z,22.00
2019-05-11T12:48:57.315Z,21.90
2019-05-11T12:51:30.526Z,20.90
2019-05-11T12:54:02.560Z,20.60
2019-05-11T12:56:38.345Z,21.10
2019-05-11T12:59:10.510Z,21.40
2019-05-11T13:01:42.651Z,22.60
2019-05-11T13:04:14.953Z,22.50
2019-05-11T13:06:48.277Z,22.30
2019-05-11T13:09:21.939Z,21.80
2019-05-11T13:11:53.788Z,21.70
2019-05-11T13:14:27.656Z,22.00
2019-05-11T13:17:00.088Z,22.60
2019-05-11T13:19:47.963Z,22.90
2019-05-11T13:22:20.993Z,23.30
2019-05-11T13:24:53.763Z,24.10
2019-05-11T13:27:28.399Z,24.40
2019-05-11T13:30:00.764Z,23.60
2019-05-11T13:32:33.123Z,23.50
2019-05-11T13:35:09.301Z,23.90
2019-05-11T13:37:41.435Z,24.60
2019-05-11T13:40:15.623Z,23.50
2019-05-11T13:42:48.970Z,22.70
2019-05-11T13:45:21.367Z,22.20
2019-05-11T13:47:58.475Z,21.90
2019-05-11T13:50:29.613Z,21.20
2019-05-11T13:53:01.463Z,20.50
2019-05-11T13:55:35.603Z,19.80
2019-05-11T13:58:09.567Z,19.20
2019-05-11T14:00:43.456Z,18.90
2019-05-11T14:03:23.127Z,18.50
2019-05-11T14:05:58.047Z,18.50
2019-05-11T14:08:30.024Z,18.40
2019-05-11T14:11:03.617Z,18.00
2019-05-11T14:13:38.477Z,17.80
2019-05-11T14:16:10.119Z,17.80
2019-05-11T14:18:42.048Z,18.40
2019-05-11T14:21:14.194Z,18.70
2019-05-11T14:23:48.414Z,18.60
2019-05-11T14:26:21.192Z,18.40
2019-05-11T14:28:54.087Z,18.30
2019-05-11T14:31:28.051Z,18.50
2019-05-11T14:34:01.746Z,19.40
2019-05-11T14:36:35.226Z,21.30
2019-05-11T14:39:08.847Z,22.50
2019-05-11T14:41:41.365Z,22.90
2019-05-11T14:44:13.629Z,22.60
2019-05-11T14:46:47.773Z,21.80
2019-05-11T14:49:20.259Z,20.50
2019-05-11T14:51:54.250Z,18.80
2019-05-11T14:54:28.630Z,17.80
2019-05-11T14:57:01.324Z,17.10
2019-05-11T14:59:33.686Z,16.80
2019-05-11T15:02:29.299Z,16.90
2019-05-11T15:05:11.816Z,17.50
2019-05-11T15:07:47.979Z,19.40
2019-05-11T15:10:22.068Z,21.20
2019-05-11T15:12:54.658Z,22.40
2019-05-11T15:15:27.970Z,23.80
2019-05-11T15:18:01.058Z,24.70
2019-05-11T15:20:33.587Z,24.10
2019-05-11T15:23:05.817Z,22.90
2019-05-11T15:25:38.460Z,22.00
2019-05-11T15:28:11.754Z,21.20
2019-05-11T15:30:44.263Z,20.80
2019-05-11T15:33:18.344Z,21.00
2019-05-11T15:35:50.543Z,22.00
2019-05-11T15:38:24.894Z,23.10
2019-05-11T15:40:57.942Z,23.40
2019-05-11T15:43:30.202Z,23.30
2019-05-11T15:46:06.989Z,23.70
2019-05-11T15:48:55.675Z,23.40
2019-05-11T15:51:14.429Z,24.10
2019-05-11T15:53:47.657Z,24.40
2019-05-11T15:56:19.748Z,24.30
2019-05-11T15:58:51.752Z,23.30
2019-05-11T16:01:24.319Z,22.00
2019-05-11T16:03:58.322Z,20.90
2019-05-11T16:06:31.209Z,20.00
2019-05-11T16:09:08.379Z,19.10
2019-05-11T16:11:41.586Z,18.40
2019-05-11T16:14:16.568Z,17.90
2019-05-11T16:16:49.012Z,17.50
2019-05-11T16:19:21.603Z,17.80
2019-05-11T16:21:53.822Z,18.80
2019-05-11T16:24:27.077Z,20.10
2019-05-11T16:26:59.785Z,21.20
2019-05-11T16:29:38.301Z,21.90
2019-05-11T16:32:09.742Z,22.40
2019-05-11T16:34:42.439Z,22.30
2019-05-11T16:37:14.905Z,22.30
2019-05-11T16:39:49.505Z,22.50
2019-05-11T16:42:22.782Z,22.00
2019-05-11T16:44:55.012Z,22.30
2019-05-11T16:47:28.540Z,22.90
2019-05-11T16:50:00.577Z,23.30
2019-05-11T16:52:34.512Z,22.80
2019-05-11T16:55:11.563Z,22.20
2019-05-11T16:57:48.002Z,22.40
2019-05-11T17:00:20.248Z,22.60
2019-05-11T17:02:53.823Z,22.80
2019-05-11T17:05:33.474Z,22.40
2019-05-11T17:08:03.027Z,21.90
2019-05-11T17:10:36.077Z,21.80
2019-05-11T17:13:09.400Z,21.60
2019-05-11T17:15:41.120Z,21.40
2019-05-11T17:18:13.714Z,21.50
2019-05-11T17:20:46.106Z,21.90
2019-05-11T17:23:18.372Z,22.40
2019-05-11T17:25:51.237Z,22.40
2019-05-11T17:28:23.387Z,22.70
2019-05-11T17:30:55.472Z,22.60
2019-05-11T17:33:28.966Z,22.40
2019-05-11T17:36:08.122Z,21.60
2019-05-11T17:38:41.778Z,21.00
2019-05-11T17:41:13.938Z,18.80
2019-05-11T17:43:51.619Z,18.80
2019-05-11T17:46:28.940Z,18.10
2019-05-11T17:49:01.648Z,17.40
2019-05-11T17:51:37.913Z,17.10
2019-05-11T17:54:11.432Z,16.80
2019-05-11T17:56:43.742Z,16.50
2019-05-11T17:59:15.989Z,16.30
2019-05-11T18:01:49.437Z,16.20
2019-05-11T18:04:23.159Z,16.00
2019-05-11T18:06:58.843Z,15.90
2019-05-11T18:09:31.261Z,15.70
2019-05-11T18:12:05.879Z,15.50
2019-05-11T18:14:39.461Z,15.50
2019-05-11T18:17:12.252Z,15.40
2019-05-11T18:19:45.791Z,15.20
2019-05-11T18:22:17.935Z,15.10
2019-05-11T18:25:08.639Z,15.00
2019-05-11T18:27:40.795Z,14.80
2019-05-11T18:30:13.758Z,14.80
2019-05-11T18:32:48.838Z,14.70
2019-05-11T18:35:20.751Z,14.60
2019-05-11T18:37:53.952Z,14.40
2019-05-11T18:40:28.567Z,14.30
2019-05-11T18:43:00.440Z,14.20
2019-05-11T18:45:32.255Z,14.10
2019-05-11T18:48:05.260Z,13.90
2019-05-11T18:50:38.447Z,13.80
2019-05-11T18:53:13.243Z,13.60
2019-05-11T18:55:48.650Z,13.50
2019-05-11T18:58:21.488Z,13.40
2019-05-11T19:00:55.292Z,13.30
2019-05-11T19:03:29.460Z,13.20
2019-05-11T19:06:02.034Z,13.10
2019-05-11T19:08:35.529Z,13.00
2019-05-11T19:11:09.217Z,12.90
2019-05-11T19:13:42.955Z,12.80
2019-05-11T19:16:18.882Z,12.60
2019-05-11T19:18:54.538Z,12.50
2019-05-11T19:21:30.137Z,12.50
2019-05-11T19:24:05.975Z,12.40
2019-05-11T19:26:41.134Z,12.30
2019-05-11T19:29:14.250Z,12.20
2019-05-11T19:31:47.676Z,12.10
2019-05-11T19:34:21.882Z,12.00
2019-05-11T19:36:57.937Z,12.00
2019-05-11T19:39:30.299Z,11.80
2019-05-11T19:42:02.417Z,11.70
2019-05-11T19:44:42.118Z,11.60
2019-05-11T19:47:17.937Z,11.60
2019-05-11T19:49:50.125Z,11.50
2019-05-11T19:52:28.128Z,11.40
2019-05-11T19:55:01.900Z,11.30
2019-05-11T19:57:34.226Z,11.20
2019-05-11T20:00:07.997Z,11.20
2019-05-11T20:02:46.509Z,11.10
2019-05-11T20:05:25.553Z,11.00
2019-05-11T20:08:00.716Z,11.00
2019-05-11T20:10:32.768Z,10.90
2019-05-11T20:13:08.145Z,10.80
2019-05-11T20:15:41.095Z,10.80
2019-05-11T20:18:18.213Z,10.70
2019-05-11T20:21:19.437Z,10.60
2019-05-11T20:23:51.217Z,10.50
2019-05-11T20:26:28.440Z,10.40
2019-05-11T20:29:01.785Z,10.40
2019-05-11T20:31:37.899Z,10.30
2019-05-11T20:34:10.555Z,10.20
2019-05-11T20:36:44.145Z,10.10
2019-05-11T20:39:17.999Z,10.20
2019-05-11T20:41:54.042Z,10.20
2019-05-11T20:44:29.389Z,10.10
2019-05-11T20:47:04.981Z,10.00
2019-05-11T20:49:38.647Z,9.90
2019-05-11T20:52:12.730Z,9.80
2019-05-11T20:54:47.706Z,9.70
2019-05-11T20:57:20.451Z,9.60
2019-05-11T20:59:57.616Z,9.50
2019-05-11T21:02:29.833Z,9.50
2019-05-11T21:05:02.365Z,9.40
2019-05-11T21:07:35.721Z,9.30
2019-05-11T21:10:10.261Z,9.30
2019-05-11T21:12:42.586Z,9.20
2019-05-11T21:15:17.644Z,9.20
2019-05-11T21:17:51.277Z,9.10
2019-05-11T21:20:25.299Z,9.00
2019-05-11T21:22:58.073Z,8.90
2019-05-11T21:25:30.894Z,8.80
2019-05-11T21:28:03.144Z,8.70
2019-05-11T21:31:18.383Z,8.70
2019-05-11T21:33:58.896Z,8.70
2019-05-11T21:36:31.430Z,8.60
2019-05-11T21:39:08.020Z,8.60
2019-05-11T21:41:42.262Z,8.60
2019-05-11T21:44:15.041Z,8.50
2019-05-11T21:46:50.033Z,8.40
2019-05-11T21:49:26.777Z,8.30
2019-05-11T21:52:04.341Z,8.40
2019-05-11T21:54:34.474Z,8.30
2019-05-11T21:57:10.509Z,8.20
2019-05-11T21:59:48.419Z,8.10
2019-05-11T22:02:21.135Z,8.00
2019-05-11T22:04:55.110Z,8.00
2019-05-11T22:07:29.902Z,8.00
2019-05-11T22:10:02.361Z,7.90
2019-05-11T22:12:38.335Z,7.80
2019-05-11T22:15:11.665Z,7.70
2019-05-11T22:17:48.016Z,7.60
2019-05-11T22:20:22.249Z,7.50
2019-05-11T22:23:19.020Z,7.40
2019-05-11T22:25:55.590Z,7.30
2019-05-11T22:28:38.802Z,7.30
2019-05-11T22:31:12.861Z,7.30
2019-05-11T22:33:52.077Z,7.30
2019-05-11T22:36:28.221Z,7.30
2019-05-11T22:39:11.355Z,7.20
2019-05-11T22:41:45.173Z,7.10
2019-05-11T22:44:20.525Z,7.20
2019-05-11T22:46:54.835Z,7.20
2019-05-11T22:49:33.959Z,7.20
2019-05-11T22:52:08.762Z,7.20
2019-05-11T22:54:43.826Z,7.20
2019-05-11T22:57:26.575Z,7.10
2019-05-11T23:00:31.111Z,7.00
2019-05-11T23:03:07.725Z,6.90
2019-05-11T23:05:42.156Z,6.80
2019-05-11T23:08:18.548Z,6.70
2019-05-11T23:10:52.844Z,6.70
2019-05-11T23:13:29.808Z,6.60
2019-05-11T23:16:03.370Z,6.60
2019-05-11T23:18:38.942Z,6.60
2019-05-11T23:21:11.827Z,6.50
2019-05-11T23:23:44.633Z,6.50
2019-05-11T23:26:29.144Z,6.50
2019-05-11T23:29:02.710Z,6.50
2019-05-11T23:31:35.376Z,6.40
2019-05-11T23:34:08.303Z,6.30
2019-05-11T23:36:41.217Z,6.10
2019-05-11T23:39:15.229Z,6.20
2019-05-11T23:41:49.212Z,6.10
2019-05-11T23:44:22.283Z,6.20
2019-05-11T23:46:55.569Z,6.20
2019-05-11T23:49:29.989Z,6.30
2019-05-11T23:52:04.899Z,6.30
2019-05-11T23:54:40.034Z,6.40
2019-05-11T23:57:12.127Z,6.30
2019-05-11T23:59:44.786Z,6.10
